Impacts TAF Board
For situational awareness. Not to be used for flight planning purposes.
IDs:

KMEI - Meridian/Key Fld, MS, US

Issued at 0520 UTC 18 Oct 2018
Updated at 0528 UTC 18 Oct 2018
Potential Impact None Slight Moderate High
Time0258Z 18/06Z 18/07Z 18/08Z 18/09Z 18/10Z 18/11Z 18/12Z 18/13Z 18/14Z 18/15Z 18/16Z 18/17Z 18/18Z>>
Type OBS PRVL PRVL PRVL PRVL PRVL PRVL PRVL PRVL PRVL PRVL PRVL PRVL PRVL
VIS 10 >6 >6 >6 >6 >6 >6 >6 >6 >6 >6 >6 >6 >6
CIG 50 50 50 50 50 50 50 50 50 50 100 100 100 100
Cover BKN BKN BKN BKN BKN BKN BKN BKN BKN BKN BKN BKN BKN BKN
FltCat VFR VFR VFR VFR VFR VFR VFR VFR VFR VFR VFR VFR VFR VFR
WX -- -- -- -- -- -- -- -- -- -- -- -- -- --
WDir 80 50 50 50 50 50 50 50 50 50 30 30 30 30
WSpd 8 7 7 7 7 7 7 7 7 7 10 10 10 10
WGst -- -- -- -- -- -- -- -- -- -- -- -- -- --
Raw TAF
KMEI 180520Z 1806/1906 05007KT P6SM BKN050
  FM181500 03010KT P6SM SCT050 BKN100


Raw METAR
KMEI 180258Z 08008KT 10SM BKN050 16/12 A3032 RMK AO2 SLPNO T01610122 $

METAR Board
Radar Display
Forecast Discussion
For situational awareness. Not to be used for flight planning purposes.